sensor_id;sensor_type;location;lat;lon;timestamp;P1;durP1;ratioP1;P2;durP2;ratioP2
19617;SDS011;9956;51.006;13.670;2024-01-10T00:01:26;80.97;;;40.50;;
19617;SDS011;9956;51.006;13.670;2024-01-10T00:06:27;76.73;;;39.67;;
19617;SDS011;9956;51.006;13.670;2024-01-10T00:11:27;78.07;;;38.63;;
19617;SDS011;9956;51.006;13.670;2024-01-10T00:16:28;78.77;;;38.13;;
19617;SDS011;9956;51.006;13.670;2024-01-10T00:21:28;75.57;;;38.20;;
19617;SDS011;9956;51.006;13.670;2024-01-10T00:26:29;83.60;;;37.27;;
19617;SDS011;9956;51.006;13.670;2024-01-10T00:31:30;77.80;;;39.67;;
19617;SDS011;9956;51.006;13.670;2024-01-10T00:36:30;74.43;;;39.73;;
19617;SDS011;9956;51.006;13.670;2024-01-10T00:41:30;70.47;;;36.60;;
19617;SDS011;9956;51.006;13.670;2024-01-10T00:46:31;78.73;;;35.80;;
19617;SDS011;9956;51.006;13.670;2024-01-10T00:51:31;72.87;;;37.67;;
19617;SDS011;9956;51.006;13.670;2024-01-10T00:56:32;64.00;;;33.80;;
19617;SDS011;9956;51.006;13.670;2024-01-10T01:01:32;74.47;;;33.60;;
19617;SDS011;9956;51.006;13.670;2024-01-10T01:06:33;74.63;;;37.60;;
19617;SDS011;9956;51.006;13.670;2024-01-10T01:11:33;70.90;;;36.07;;
19617;SDS011;9956;51.006;13.670;2024-01-10T01:16:34;67.50;;;36.77;;
19617;SDS011;9956;51.006;13.670;2024-01-10T01:21:34;73.83;;;36.23;;
19617;SDS011;9956;51.006;13.670;2024-01-10T01:26:34;75.67;;;35.17;;
19617;SDS011;9956;51.006;13.670;2024-01-10T01:31:35;69.37;;;36.13;;
19617;SDS011;9956;51.006;13.670;2024-01-10T01:36:37;62.00;;;33.97;;
19617;SDS011;9956;51.006;13.670;2024-01-10T01:41:37;70.93;;;37.60;;
19617;SDS011;9956;51.006;13.670;2024-01-10T01:46:38;76.60;;;36.03;;
19617;SDS011;9956;51.006;13.670;2024-01-10T01:51:40;69.67;;;34.10;;
19617;SDS011;9956;51.006;13.670;2024-01-10T01:56:40;69.77;;;32.83;;
19617;SDS011;9956;51.006;13.670;2024-01-10T02:01:42;71.73;;;32.07;;
19617;SDS011;9956;51.006;13.670;2024-01-10T02:06:42;70.17;;;33.93;;
19617;SDS011;9956;51.006;13.670;2024-01-10T02:11:43;60.57;;;31.67;;
19617;SDS011;9956;51.006;13.670;2024-01-10T02:16:43;69.97;;;33.20;;
19617;SDS011;9956;51.006;13.670;2024-01-10T02:21:44;67.73;;;33.13;;
19617;SDS011;9956;51.006;13.670;2024-01-10T02:26:44;67.47;;;32.77;;
19617;SDS011;9956;51.006;13.670;2024-01-10T02:31:45;63.20;;;31.77;;
19617;SDS011;9956;51.006;13.670;2024-01-10T02:36:46;59.43;;;31.43;;
19617;SDS011;9956;51.006;13.670;2024-01-10T02:41:46;68.83;;;33.93;;
19617;SDS011;9956;51.006;13.670;2024-01-10T02:46:47;66.53;;;31.97;;
19617;SDS011;9956;51.006;13.670;2024-01-10T02:51:47;59.60;;;30.83;;
19617;SDS011;9956;51.006;13.670;2024-01-10T02:56:48;67.47;;;32.10;;
19617;SDS011;9956;51.006;13.670;2024-01-10T03:01:49;66.60;;;32.07;;
19617;SDS011;9956;51.006;13.670;2024-01-10T03:06:49;70.23;;;31.03;;
19617;SDS011;9956;51.006;13.670;2024-01-10T03:11:53;61.20;;;29.40;;
19617;SDS011;9956;51.006;13.670;2024-01-10T03:16:53;66.47;;;32.60;;
19617;SDS011;9956;51.006;13.670;2024-01-10T03:21:54;60.53;;;29.70;;
19617;SDS011;9956;51.006;13.670;2024-01-10T03:26:54;71.87;;;32.57;;
19617;SDS011;9956;51.006;13.670;2024-01-10T03:31:55;66.17;;;31.07;;
19617;SDS011;9956;51.006;13.670;2024-01-10T03:36:55;58.43;;;31.53;;
19617;SDS011;9956;51.006;13.670;2024-01-10T03:41:56;62.30;;;32.10;;
19617;SDS011;9956;51.006;13.670;2024-01-10T03:46:56;68.10;;;33.70;;
19617;SDS011;9956;51.006;13.670;2024-01-10T03:51:57;60.10;;;31.30;;
19617;SDS011;9956;51.006;13.670;2024-01-10T03:56:57;58.70;;;30.13;;
19617;SDS011;9956;51.006;13.670;2024-01-10T04:01:58;53.60;;;28.80;;
19617;SDS011;9956;51.006;13.670;2024-01-10T04:07:00;54.30;;;28.93;;
19617;SDS011;9956;51.006;13.670;2024-01-10T04:12:02;60.47;;;30.60;;
19617;SDS011;9956;51.006;13.670;2024-01-10T04:17:02;55.33;;;29.93;;
19617;SDS011;9956;51.006;13.670;2024-01-10T04:22:05;56.87;;;27.73;;
19617;SDS011;9956;51.006;13.670;2024-01-10T04:27:05;57.13;;;30.37;;
19617;SDS011;9956;51.006;13.670;2024-01-10T04:32:06;58.97;;;29.47;;
19617;SDS011;9956;51.006;13.670;2024-01-10T04:37:06;59.00;;;29.10;;
19617;SDS011;9956;51.006;13.670;2024-01-10T04:42:07;57.73;;;28.53;;
19617;SDS011;9956;51.006;13.670;2024-01-10T04:47:07;54.37;;;28.53;;
19617;SDS011;9956;51.006;13.670;2024-01-10T04:52:08;60.03;;;27.10;;
19617;SDS011;9956;51.006;13.670;2024-01-10T04:57:08;56.43;;;29.63;;
19617;SDS011;9956;51.006;13.670;2024-01-10T05:02:08;55.13;;;27.43;;
19617;SDS011;9956;51.006;13.670;2024-01-10T05:07:09;52.93;;;28.27;;
19617;SDS011;9956;51.006;13.670;2024-01-10T05:12:09;53.93;;;25.33;;
19617;SDS011;9956;51.006;13.670;2024-01-10T05:17:10;52.83;;;26.30;;
19617;SDS011;9956;51.006;13.670;2024-01-10T05:22:11;50.63;;;25.43;;
19617;SDS011;9956;51.006;13.670;2024-01-10T05:27:12;51.93;;;27.27;;
19617;SDS011;9956;51.006;13.670;2024-01-10T05:32:12;55.10;;;25.90;;
19617;SDS011;9956;51.006;13.670;2024-01-10T05:37:13;47.17;;;26.37;;
19617;SDS011;9956;51.006;13.670;2024-01-10T05:42:13;50.27;;;24.37;;
19617;SDS011;9956;51.006;13.670;2024-01-10T05:47:14;57.63;;;25.07;;
19617;SDS011;9956;51.006;13.670;2024-01-10T05:52:14;46.17;;;24.10;;
19617;SDS011;9956;51.006;13.670;2024-01-10T05:57:15;49.73;;;25.10;;
19617;SDS011;9956;51.006;13.670;2024-01-10T06:02:16;49.63;;;24.97;;
19617;SDS011;9956;51.006;13.670;2024-01-10T06:07:16;45.30;;;23.43;;
19617;SDS011;9956;51.006;13.670;2024-01-10T06:12:17;48.80;;;25.00;;
19617;SDS011;9956;51.006;13.670;2024-01-10T06:17:17;47.67;;;24.77;;
19617;SDS011;9956;51.006;13.670;2024-01-10T06:22:19;86.83;;;42.27;;
19617;SDS011;9956;51.006;13.670;2024-01-10T06:27:25;168.17;;;73.27;;
19617;SDS011;9956;51.006;13.670;2024-01-10T06:32:25;68.27;;;37.47;;
19617;SDS011;9956;51.006;13.670;2024-01-10T06:37:25;70.60;;;35.53;;
19617;SDS011;9956;51.006;13.670;2024-01-10T06:42:26;62.20;;;32.87;;
19617;SDS011;9956;51.006;13.670;2024-01-10T06:47:26;74.20;;;42.20;;
19617;SDS011;9956;51.006;13.670;2024-01-10T06:52:27;66.00;;;37.27;;
19617;SDS011;9956;51.006;13.670;2024-01-10T06:57:27;53.93;;;30.93;;
19617;SDS011;9956;51.006;13.670;2024-01-10T07:02:28;56.10;;;29.33;;
19617;SDS011;9956;51.006;13.670;2024-01-10T07:07:28;50.27;;;27.63;;
19617;SDS011;9956;51.006;13.670;2024-01-10T07:12:29;58.77;;;29.63;;
19617;SDS011;9956;51.006;13.670;2024-01-10T07:17:29;60.43;;;28.97;;
19617;SDS011;9956;51.006;13.670;2024-01-10T07:22:30;57.33;;;29.10;;
19617;SDS011;9956;51.006;13.670;2024-01-10T07:27:31;62.27;;;30.30;;
19617;SDS011;9956;51.006;13.670;2024-01-10T07:32:31;52.27;;;29.17;;
19617;SDS011;9956;51.006;13.670;2024-01-10T07:37:32;59.23;;;29.77;;
19617;SDS011;9956;51.006;13.670;2024-01-10T07:42:32;55.23;;;27.73;;
19617;SDS011;9956;51.006;13.670;2024-01-10T07:47:34;59.93;;;28.47;;
19617;SDS011;9956;51.006;13.670;2024-01-10T07:52:37;53.37;;;27.40;;
19617;SDS011;9956;51.006;13.670;2024-01-10T07:57:38;49.10;;;27.43;;
19617;SDS011;9956;51.006;13.670;2024-01-10T08:02:39;53.93;;;27.60;;
19617;SDS011;9956;51.006;13.670;2024-01-10T08:07:40;47.73;;;26.50;;
19617;SDS011;9956;51.006;13.670;2024-01-10T08:12:40;52.03;;;24.73;;
19617;SDS011;9956;51.006;13.670;2024-01-10T08:17:44;47.47;;;22.63;;
19617;SDS011;9956;51.006;13.670;2024-01-10T08:22:44;38.78;;;21.40;;
19617;SDS011;9956;51.006;13.670;2024-01-10T08:27:45;32.55;;;18.83;;
19617;SDS011;9956;51.006;13.670;2024-01-10T08:32:45;35.55;;;21.77;;
19617;SDS011;9956;51.006;13.670;2024-01-10T08:37:46;30.05;;;19.92;;
19617;SDS011;9956;51.006;13.670;2024-01-10T08:42:47;36.90;;;21.40;;
19617;SDS011;9956;51.006;13.670;2024-01-10T08:47:47;36.92;;;21.88;;
19617;SDS011;9956;51.006;13.670;2024-01-10T08:52:48;37.70;;;24.80;;
19617;SDS011;9956;51.006;13.670;2024-01-10T08:57:48;38.60;;;23.45;;
19617;SDS011;9956;51.006;13.670;2024-01-10T09:02:49;40.85;;;25.75;;
19617;SDS011;9956;51.006;13.670;2024-01-10T09:07:49;32.72;;;22.15;;
19617;SDS011;9956;51.006;13.670;2024-01-10T09:17:51;37.38;;;23.92;;
19617;SDS011;9956;51.006;13.670;2024-01-10T09:22:52;42.97;;;25.90;;
19617;SDS011;9956;51.006;13.670;2024-01-10T09:27:52;36.60;;;23.58;;
19617;SDS011;9956;51.006;13.670;2024-01-10T09:32:53;38.13;;;24.98;;
19617;SDS011;9956;51.006;13.670;2024-01-10T09:37:53;36.67;;;23.83;;
19617;SDS011;9956;51.006;13.670;2024-01-10T09:42:54;32.70;;;23.08;;
19617;SDS011;9956;51.006;13.670;2024-01-10T09:47:58;33.85;;;24.23;;
19617;SDS011;9956;51.006;13.670;2024-01-10T09:53:02;40.03;;;27.20;;
19617;SDS011;9956;51.006;13.670;2024-01-10T09:58:06;32.50;;;23.25;;
19617;SDS011;9956;51.006;13.670;2024-01-10T10:03:09;14.85;;;10.82;;
19617;SDS011;9956;51.006;13.670;2024-01-10T10:08:13;25.42;;;18.52;;
19617;SDS011;9956;51.006;13.670;2024-01-10T10:13:26;29.63;;;18.83;;
19617;SDS011;9956;51.006;13.670;2024-01-10T10:18:30;27.17;;;19.65;;
19617;SDS011;9956;51.006;13.670;2024-01-10T10:23:34;24.30;;;19.38;;
19617;SDS011;9956;51.006;13.670;2024-01-10T10:28:36;25.63;;;19.33;;
19617;SDS011;9956;51.006;13.670;2024-01-10T10:33:37;26.33;;;19.90;;
19617;SDS011;9956;51.006;13.670;2024-01-10T10:38:37;14.25;;;11.48;;
19617;SDS011;9956;51.006;13.670;2024-01-10T10:43:38;13.73;;;9.57;;
19617;SDS011;9956;51.006;13.670;2024-01-10T10:48:39;12.93;;;10.90;;
19617;SDS011;9956;51.006;13.670;2024-01-10T10:53:41;17.73;;;12.93;;
19617;SDS011;9956;51.006;13.670;2024-01-10T10:58:46;16.10;;;12.45;;
19617;SDS011;9956;51.006;13.670;2024-01-10T11:03:47;19.25;;;12.13;;
19617;SDS011;9956;51.006;13.670;2024-01-10T11:09:06;17.25;;;12.07;;
19617;SDS011;9956;51.006;13.670;2024-01-10T11:14:21;17.77;;;11.93;;
19617;SDS011;9956;51.006;13.670;2024-01-10T11:24:59;16.05;;;11.40;;
19617;SDS011;9956;51.006;13.670;2024-01-10T11:30:00;14.98;;;10.65;;
19617;SDS011;9956;51.006;13.670;2024-01-10T11:35:03;13.80;;;9.77;;
19617;SDS011;9956;51.006;13.670;2024-01-10T11:40:14;15.13;;;10.25;;
19617;SDS011;9956;51.006;13.670;2024-01-10T11:45:35;12.57;;;10.43;;
19617;SDS011;9956;51.006;13.670;2024-01-10T11:50:36;14.40;;;10.00;;
19617;SDS011;9956;51.006;13.670;2024-01-10T11:55:47;12.38;;;9.98;;
19617;SDS011;9956;51.006;13.670;2024-01-10T12:00:51;14.13;;;10.18;;
19617;SDS011;9956;51.006;13.670;2024-01-10T12:05:52;14.50;;;10.38;;
19617;SDS011;9956;51.006;13.670;2024-01-10T12:10:53;12.27;;;9.68;;
19617;SDS011;9956;51.006;13.670;2024-01-10T12:15:54;14.02;;;10.40;;
19617;SDS011;9956;51.006;13.670;2024-01-10T12:20:54;17.60;;;10.48;;
19617;SDS011;9956;51.006;13.670;2024-01-10T12:25:55;15.10;;;11.32;;
19617;SDS011;9956;51.006;13.670;2024-01-10T12:30:55;14.00;;;9.40;;
19617;SDS011;9956;51.006;13.670;2024-01-10T12:36:07;13.77;;;10.65;;
19617;SDS011;9956;51.006;13.670;2024-01-10T12:41:11;12.55;;;10.00;;
19617;SDS011;9956;51.006;13.670;2024-01-10T12:46:12;14.13;;;9.95;;
19617;SDS011;9956;51.006;13.670;2024-01-10T12:51:16;14.73;;;9.68;;
19617;SDS011;9956;51.006;13.670;2024-01-10T12:56:17;17.20;;;13.95;;
19617;SDS011;9956;51.006;13.670;2024-01-10T13:01:18;26.25;;;21.52;;
19617;SDS011;9956;51.006;13.670;2024-01-10T13:06:18;25.40;;;18.05;;
19617;SDS011;9956;51.006;13.670;2024-01-10T13:11:22;23.20;;;17.17;;
19617;SDS011;9956;51.006;13.670;2024-01-10T13:16:22;23.25;;;16.25;;
19617;SDS011;9956;51.006;13.670;2024-01-10T13:21:25;25.52;;;16.92;;
19617;SDS011;9956;51.006;13.670;2024-01-10T13:26:25;22.65;;;17.13;;
19617;SDS011;9956;51.006;13.670;2024-01-10T13:31:26;20.70;;;13.88;;
19617;SDS011;9956;51.006;13.670;2024-01-10T13:36:26;13.27;;;8.18;;
19617;SDS011;9956;51.006;13.670;2024-01-10T13:41:27;10.60;;;7.35;;
19617;SDS011;9956;51.006;13.670;2024-01-10T13:46:27;10.98;;;8.07;;
19617;SDS011;9956;51.006;13.670;2024-01-10T13:51:28;11.25;;;7.55;;
19617;SDS011;9956;51.006;13.670;2024-01-10T13:56:28;12.40;;;8.35;;
19617;SDS011;9956;51.006;13.670;2024-01-10T14:01:30;13.50;;;8.23;;
19617;SDS011;9956;51.006;13.670;2024-01-10T14:06:30;13.43;;;9.70;;
19617;SDS011;9956;51.006;13.670;2024-01-10T14:11:31;13.50;;;9.13;;
19617;SDS011;9956;51.006;13.670;2024-01-10T14:16:33;10.68;;;7.38;;
19617;SDS011;9956;51.006;13.670;2024-01-10T14:21:33;10.88;;;8.52;;
19617;SDS011;9956;51.006;13.670;2024-01-10T14:26:34;12.45;;;8.40;;
19617;SDS011;9956;51.006;13.670;2024-01-10T14:31:35;9.43;;;7.63;;
19617;SDS011;9956;51.006;13.670;2024-01-10T14:36:40;10.20;;;7.63;;
19617;SDS011;9956;51.006;13.670;2024-01-10T14:41:41;10.52;;;8.00;;
19617;SDS011;9956;51.006;13.670;2024-01-10T14:46:41;11.90;;;8.18;;
19617;SDS011;9956;51.006;13.670;2024-01-10T14:51:42;12.10;;;8.80;;
19617;SDS011;9956;51.006;13.670;2024-01-10T14:56:42;10.13;;;8.25;;
19617;SDS011;9956;51.006;13.670;2024-01-10T15:01:46;12.63;;;8.45;;
19617;SDS011;9956;51.006;13.670;2024-01-10T15:06:47;14.88;;;9.93;;
19617;SDS011;9956;51.006;13.670;2024-01-10T15:11:47;11.57;;;7.85;;
19617;SDS011;9956;51.006;13.670;2024-01-10T15:16:48;11.13;;;8.15;;
19617;SDS011;9956;51.006;13.670;2024-01-10T15:21:49;15.85;;;8.18;;
19617;SDS011;9956;51.006;13.670;2024-01-10T15:26:49;19.27;;;12.18;;
19617;SDS011;9956;51.006;13.670;2024-01-10T15:31:50;18.77;;;10.73;;
19617;SDS011;9956;51.006;13.670;2024-01-10T15:36:51;13.70;;;8.85;;
19617;SDS011;9956;51.006;13.670;2024-01-10T15:41:52;17.45;;;10.80;;
19617;SDS011;9956;51.006;13.670;2024-01-10T15:46:52;15.52;;;10.40;;
19617;SDS011;9956;51.006;13.670;2024-01-10T15:51:53;15.13;;;9.65;;
19617;SDS011;9956;51.006;13.670;2024-01-10T15:56:53;13.40;;;8.18;;
19617;SDS011;9956;51.006;13.670;2024-01-10T16:01:54;16.80;;;9.70;;
19617;SDS011;9956;51.006;13.670;2024-01-10T16:06:55;14.18;;;9.07;;
19617;SDS011;9956;51.006;13.670;2024-01-10T16:11:55;21.23;;;8.93;;
19617;SDS011;9956;51.006;13.670;2024-01-10T16:16:56;12.15;;;8.65;;
19617;SDS011;9956;51.006;13.670;2024-01-10T16:21:58;14.40;;;9.38;;
19617;SDS011;9956;51.006;13.670;2024-01-10T16:26:58;16.17;;;9.02;;
19617;SDS011;9956;51.006;13.670;2024-01-10T16:31:59;12.95;;;8.52;;
19617;SDS011;9956;51.006;13.670;2024-01-10T16:36:59;19.98;;;11.00;;
19617;SDS011;9956;51.006;13.670;2024-01-10T16:42:00;17.42;;;9.85;;
19617;SDS011;9956;51.006;13.670;2024-01-10T16:47:03;15.07;;;9.23;;
19617;SDS011;9956;51.006;13.670;2024-01-10T16:52:04;17.65;;;10.15;;
19617;SDS011;9956;51.006;13.670;2024-01-10T16:57:05;15.80;;;10.60;;
19617;SDS011;9956;51.006;13.670;2024-01-10T17:02:05;17.95;;;10.48;;
19617;SDS011;9956;51.006;13.670;2024-01-10T17:07:06;17.90;;;10.30;;
19617;SDS011;9956;51.006;13.670;2024-01-10T17:12:06;19.30;;;12.23;;
19617;SDS011;9956;51.006;13.670;2024-01-10T17:17:07;17.05;;;11.38;;
19617;SDS011;9956;51.006;13.670;2024-01-10T17:22:07;18.92;;;11.40;;
19617;SDS011;9956;51.006;13.670;2024-01-10T17:27:08;19.30;;;12.13;;
19617;SDS011;9956;51.006;13.670;2024-01-10T17:32:08;36.00;;;24.77;;
19617;SDS011;9956;51.006;13.670;2024-01-10T17:37:09;29.23;;;20.60;;
19617;SDS011;9956;51.006;13.670;2024-01-10T17:42:10;28.77;;;19.05;;
19617;SDS011;9956;51.006;13.670;2024-01-10T17:47:10;27.38;;;19.02;;
19617;SDS011;9956;51.006;13.670;2024-01-10T17:52:11;24.95;;;17.85;;
19617;SDS011;9956;51.006;13.670;2024-01-10T17:57:11;32.42;;;20.08;;
19617;SDS011;9956;51.006;13.670;2024-01-10T18:02:12;40.03;;;25.05;;
19617;SDS011;9956;51.006;13.670;2024-01-10T18:07:12;44.42;;;30.98;;
19617;SDS011;9956;51.006;13.670;2024-01-10T18:12:13;47.42;;;31.45;;
19617;SDS011;9956;51.006;13.670;2024-01-10T18:17:14;30.05;;;19.55;;
19617;SDS011;9956;51.006;13.670;2024-01-10T18:22:14;29.92;;;18.13;;
19617;SDS011;9956;51.006;13.670;2024-01-10T18:27:14;35.78;;;22.30;;
19617;SDS011;9956;51.006;13.670;2024-01-10T18:32:15;29.52;;;21.50;;
19617;SDS011;9956;51.006;13.670;2024-01-10T18:37:15;35.92;;;22.90;;
19617;SDS011;9956;51.006;13.670;2024-01-10T18:42:17;44.35;;;27.20;;
19617;SDS011;9956;51.006;13.670;2024-01-10T18:47:18;46.00;;;26.42;;
19617;SDS011;9956;51.006;13.670;2024-01-10T18:52:21;41.75;;;26.05;;
19617;SDS011;9956;51.006;13.670;2024-01-10T18:57:22;46.70;;;27.13;;
19617;SDS011;9956;51.006;13.670;2024-01-10T19:02:22;43.42;;;27.38;;
19617;SDS011;9956;51.006;13.670;2024-01-10T19:07:23;43.70;;;27.60;;
19617;SDS011;9956;51.006;13.670;2024-01-10T19:12:24;45.20;;;27.50;;
19617;SDS011;9956;51.006;13.670;2024-01-10T19:17:24;42.17;;;25.52;;
19617;SDS011;9956;51.006;13.670;2024-01-10T19:22:25;40.20;;;26.63;;
19617;SDS011;9956;51.006;13.670;2024-01-10T19:27:26;44.15;;;28.92;;
19617;SDS011;9956;51.006;13.670;2024-01-10T19:32:28;43.50;;;27.08;;
19617;SDS011;9956;51.006;13.670;2024-01-10T19:37:28;39.17;;;26.60;;
19617;SDS011;9956;51.006;13.670;2024-01-10T19:42:30;42.03;;;26.37;;
19617;SDS011;9956;51.006;13.670;2024-01-10T19:47:31;37.80;;;26.20;;
19617;SDS011;9956;51.006;13.670;2024-01-10T19:52:32;35.25;;;24.33;;
19617;SDS011;9956;51.006;13.670;2024-01-10T19:57:32;35.25;;;21.45;;
19617;SDS011;9956;51.006;13.670;2024-01-10T20:02:35;37.90;;;23.52;;
19617;SDS011;9956;51.006;13.670;2024-01-10T20:07:35;44.25;;;25.42;;
19617;SDS011;9956;51.006;13.670;2024-01-10T20:12:36;35.27;;;24.13;;
19617;SDS011;9956;51.006;13.670;2024-01-10T20:17:36;41.75;;;25.40;;
19617;SDS011;9956;51.006;13.670;2024-01-10T20:22:37;38.77;;;25.40;;
19617;SDS011;9956;51.006;13.670;2024-01-10T20:27:38;34.03;;;22.97;;
19617;SDS011;9956;51.006;13.670;2024-01-10T20:32:39;40.27;;;26.07;;
19617;SDS011;9956;51.006;13.670;2024-01-10T20:37:40;38.60;;;26.17;;
19617;SDS011;9956;51.006;13.670;2024-01-10T20:42:40;40.63;;;26.30;;
19617;SDS011;9956;51.006;13.670;2024-01-10T20:47:41;38.63;;;25.73;;
19617;SDS011;9956;51.006;13.670;2024-01-10T20:52:43;40.50;;;25.43;;
19617;SDS011;9956;51.006;13.670;2024-01-10T20:57:43;38.67;;;23.27;;
19617;SDS011;9956;51.006;13.670;2024-01-10T21:02:44;39.80;;;26.40;;
19617;SDS011;9956;51.006;13.670;2024-01-10T21:07:44;37.80;;;25.33;;
19617;SDS011;9956;51.006;13.670;2024-01-10T21:12:45;40.03;;;26.13;;
19617;SDS011;9956;51.006;13.670;2024-01-10T21:17:45;37.73;;;22.57;;
19617;SDS011;9956;51.006;13.670;2024-01-10T21:22:46;39.53;;;23.90;;
19617;SDS011;9956;51.006;13.670;2024-01-10T21:27:46;33.90;;;22.83;;
19617;SDS011;9956;51.006;13.670;2024-01-10T21:32:47;36.53;;;21.97;;
19617;SDS011;9956;51.006;13.670;2024-01-10T21:37:47;34.77;;;21.80;;
19617;SDS011;9956;51.006;13.670;2024-01-10T21:42:48;45.50;;;25.70;;
19617;SDS011;9956;51.006;13.670;2024-01-10T21:47:50;41.27;;;24.80;;
19617;SDS011;9956;51.006;13.670;2024-01-10T21:52:50;40.70;;;25.30;;
19617;SDS011;9956;51.006;13.670;2024-01-10T21:57:51;40.57;;;23.27;;
19617;SDS011;9956;51.006;13.670;2024-01-10T22:02:52;37.87;;;23.00;;
19617;SDS011;9956;51.006;13.670;2024-01-10T22:07:55;37.47;;;23.27;;
19617;SDS011;9956;51.006;13.670;2024-01-10T22:12:56;40.43;;;23.60;;
19617;SDS011;9956;51.006;13.670;2024-01-10T22:17:57;35.47;;;22.53;;
19617;SDS011;9956;51.006;13.670;2024-01-10T22:22:58;37.67;;;24.03;;
19617;SDS011;9956;51.006;13.670;2024-01-10T22:27:59;41.87;;;25.50;;
19617;SDS011;9956;51.006;13.670;2024-01-10T22:32:59;48.23;;;26.87;;
19617;SDS011;9956;51.006;13.670;2024-01-10T22:38:00;44.20;;;25.87;;
19617;SDS011;9956;51.006;13.670;2024-01-10T22:43:00;45.87;;;26.33;;
19617;SDS011;9956;51.006;13.670;2024-01-10T22:48:01;37.97;;;24.53;;
19617;SDS011;9956;51.006;13.670;2024-01-10T22:53:03;38.67;;;23.57;;
19617;SDS011;9956;51.006;13.670;2024-01-10T22:58:03;39.60;;;25.67;;
19617;SDS011;9956;51.006;13.670;2024-01-10T23:03:04;41.37;;;25.90;;
19617;SDS011;9956;51.006;13.670;2024-01-10T23:08:04;37.33;;;23.00;;
19617;SDS011;9956;51.006;13.670;2024-01-10T23:13:07;40.70;;;25.93;;
19617;SDS011;9956;51.006;13.670;2024-01-10T23:18:07;37.23;;;22.60;;
19617;SDS011;9956;51.006;13.670;2024-01-10T23:23:07;36.17;;;22.40;;
19617;SDS011;9956;51.006;13.670;2024-01-10T23:28:08;32.70;;;21.73;;
19617;SDS011;9956;51.006;13.670;2024-01-10T23:33:09;37.33;;;23.83;;
19617;SDS011;9956;51.006;13.670;2024-01-10T23:38:09;34.90;;;22.03;;
19617;SDS011;9956;51.006;13.670;2024-01-10T23:43:11;38.00;;;19.90;;
19617;SDS011;9956;51.006;13.670;2024-01-10T23:48:12;33.30;;;19.93;;
19617;SDS011;9956;51.006;13.670;2024-01-10T23:53:12;35.53;;;20.93;;
19617;SDS011;9956;51.006;13.670;2024-01-10T23:58:13;31.73;;;19.27;;
